Time;durP1;ratioP1;P1;durP2;ratioP2;P2;SDS_P1;SDS_P2;PMS_P1;PMS_P2;Temp;Humidity;BMP_temperature;BMP_pressure;BME280_temperature;BME280_humidity;BME280_pressure;Samples;Min_cycle;Max_cycle;Signal;HPM_P1;HPM_P2
2021/10/03 00:01:39;;;;;;;3.63;3.03;;;;;;;;;;4958299;28;21375;-72
2021/10/03 00:04:05;;;;;;;6.07;2.93;;;;;;;;;;4959252;28;21017;-72
2021/10/03 00:06:31;;;;;;;3.00;2.67;;;;;;;;;;4948428;28;20185;-71
2021/10/03 00:08:57;;;;;;;2.67;2.47;;;;;;;;;;4974424;28;20213;-73
2021/10/03 00:11:22;;;;;;;3.43;2.53;;;;;;;;;;4948874;28;20437;-71
2021/10/03 00:13:47;;;;;;;3.40;2.80;;;;;;;;;;4955075;28;20190;-71
2021/10/03 00:16:13;;;;;;;2.67;2.43;;;;;;;;;;4951990;28;20190;-72
2021/10/03 00:18:39;;;;;;;3.20;2.90;;;;;;;;;;4958291;28;20249;-72
2021/10/03 00:21:04;;;;;;;3.90;2.80;;;;;;;;;;4962443;28;20492;-71
2021/10/03 00:23:31;;;;;;;4.47;2.87;;;;;;;;;;4960804;28;20186;-72
2021/10/03 00:25:57;;;;;;;3.73;2.83;;;;;;;;;;4960099;28;20210;-72
2021/10/03 00:28:22;;;;;;;3.33;3.03;;;;;;;;;;4957014;28;20474;-72
2021/10/03 00:30:47;;;;;;;3.70;2.43;;;;;;;;;;4958057;28;20194;-72
2021/10/03 00:33:13;;;;;;;6.43;2.70;;;;;;;;;;4961663;28;20281;-71
2021/10/03 00:35:38;;;;;;;3.23;2.93;;;;;;;;;;4958258;28;20218;-72
2021/10/03 00:38:04;;;;;;;2.60;2.40;;;;;;;;;;4962023;28;20634;-72
2021/10/03 00:40:31;;;;;;;4.90;3.00;;;;;;;;;;4959400;28;20199;-71
2021/10/03 00:42:56;;;;;;;3.70;3.20;;;;;;;;;;4959530;28;20784;-71
2021/10/03 00:45:21;;;;;;;5.07;2.90;;;;;;;;;;4955180;28;20564;-71
2021/10/03 00:47:47;;;;;;;3.70;2.87;;;;;;;;;;4959292;28;20213;-72
2021/10/03 00:50:13;;;;;;;4.33;2.97;;;;;;;;;;4963929;28;20655;-71
2021/10/03 00:52:40;;;;;;;5.83;3.57;;;;;;;;;;4961092;28;20193;-71
2021/10/03 00:55:05;;;;;;;2.53;2.37;;;;;;;;;;4959723;28;20987;-71
2021/10/03 00:57:30;;;;;;;2.90;2.70;;;;;;;;;;4959032;28;20451;-71
2021/10/03 00:59:56;;;;;;;3.37;3.07;;;;;;;;;;4961675;28;20187;-71
2021/10/03 01:02:21;;;;;;;2.77;2.50;;;;;;;;;;4957414;28;20186;-71
2021/10/03 01:04:46;;;;;;;4.13;2.90;;;;;;;;;;4962572;28;20210;-71
2021/10/03 01:07:11;;;;;;;2.83;2.60;;;;;;;;;;4959578;28;20186;-71
2021/10/03 01:09:37;;;;;;;3.07;2.77;;;;;;;;;;4956892;28;20698;-71
2021/10/03 01:12:02;;;;;;;4.90;3.13;;;;;;;;;;4959258;28;20217;-71
2021/10/03 01:14:27;;;;;;;3.00;2.60;;;;;;;;;;4961934;28;20774;-72
2021/10/03 01:16:53;;;;;;;3.30;2.70;;;;;;;;;;4956452;28;20187;-72
2021/10/03 01:19:18;;;;;;;3.20;2.80;;;;;;;;;;4960042;28;20214;-71
2021/10/03 01:21:44;;;;;;;3.60;3.00;;;;;;;;;;4958282;28;20191;-72
2021/10/03 01:24:10;;;;;;;3.87;3.03;;;;;;;;;;4956948;28;20209;-72
2021/10/03 01:26:35;;;;;;;3.53;2.33;;;;;;;;;;4956697;28;20445;-72
2021/10/03 01:29:01;;;;;;;4.13;2.73;;;;;;;;;;4955291;28;21002;-72
2021/10/03 01:31:29;;;;;;;3.40;2.17;;;;;;;;;;4957888;28;20194;-72
2021/10/03 01:33:55;;;;;;;5.50;2.33;;;;;;;;;;4956534;28;20186;-72
2021/10/03 01:36:20;;;;;;;2.80;2.30;;;;;;;;;;4954505;28;20438;-72
2021/10/03 01:38:46;;;;;;;2.60;2.40;;;;;;;;;;4959274;28;20190;-73
2021/10/03 01:41:11;;;;;;;2.07;1.97;;;;;;;;;;4958059;28;20644;-72
2021/10/03 01:43:37;;;;;;;2.87;2.43;;;;;;;;;;4960245;28;20743;-73
2021/10/03 01:46:02;;;;;;;4.10;2.33;;;;;;;;;;4960332;28;20217;-73
2021/10/03 01:48:27;;;;;;;2.37;2.17;;;;;;;;;;4960534;28;20202;-72
2021/10/03 01:50:54;;;;;;;6.60;2.43;;;;;;;;;;4960253;28;20182;-72
2021/10/03 01:53:24;;;;;;;2.30;2.10;;;;;;;;;;4957558;28;20737;-72
2021/10/03 01:55:50;;;;;;;3.60;2.30;;;;;;;;;;4959577;28;20587;-72
2021/10/03 01:58:17;;;;;;;2.10;1.90;;;;;;;;;;4959825;28;20537;-73
2021/10/03 02:00:44;;;;;;;2.60;1.63;;;;;;;;;;4958850;28;20195;-72
2021/10/03 02:03:10;;;;;;;4.33;2.30;;;;;;;;;;4958159;28;20426;-71
2021/10/03 02:05:36;;;;;;;3.30;1.90;;;;;;;;;;4957488;28;20460;-72
2021/10/03 02:08:02;;;;;;;2.83;2.27;;;;;;;;;;4963134;28;20721;-72
2021/10/03 02:10:27;;;;;;;3.53;2.00;;;;;;;;;;4955682;28;20430;-72
2021/10/03 02:12:52;;;;;;;2.57;2.07;;;;;;;;;;4958271;28;20178;-73
2021/10/03 02:15:20;;;;;;;2.63;2.43;;;;;;;;;;4957164;28;20203;-73
2021/10/03 02:17:45;;;;;;;2.07;1.80;;;;;;;;;;4958943;28;20304;-72
2021/10/03 02:20:10;;;;;;;2.60;2.00;;;;;;;;;;4957971;28;20521;-73
2021/10/03 02:22:36;;;;;;;3.70;1.70;;;;;;;;;;4956532;28;21134;-72
2021/10/03 02:25:02;;;;;;;1.77;1.67;;;;;;;;;;4958680;28;21202;-73
2021/10/03 02:27:27;;;;;;;1.93;1.73;;;;;;;;;;4954608;28;20429;-72
2021/10/03 02:29:52;;;;;;;1.97;1.80;;;;;;;;;;4954544;28;20203;-72
2021/10/03 02:32:18;;;;;;;5.33;1.87;;;;;;;;;;4958341;28;20647;-72
2021/10/03 02:34:43;;;;;;;2.20;2.00;;;;;;;;;;4958071;28;20207;-72
2021/10/03 02:37:08;;;;;;;1.80;1.70;;;;;;;;;;4957658;28;20575;-73
2021/10/03 02:39:33;;;;;;;2.80;2.17;;;;;;;;;;4959583;28;20191;-73
2021/10/03 02:41:59;;;;;;;1.80;1.70;;;;;;;;;;4957194;28;20195;-73
2021/10/03 02:44:24;;;;;;;2.67;2.00;;;;;;;;;;4956748;28;20210;-70
2021/10/03 02:46:49;;;;;;;2.37;2.00;;;;;;;;;;4953609;28;20186;-70
2021/10/03 02:49:15;;;;;;;2.20;2.10;;;;;;;;;;4957578;28;20570;-70
2021/10/03 02:51:40;;;;;;;2.10;1.83;;;;;;;;;;4959992;28;20206;-70
2021/10/03 02:54:05;;;;;;;2.33;2.10;;;;;;;;;;4958163;28;20277;-70
2021/10/03 02:56:31;;;;;;;4.53;2.27;;;;;;;;;;4958852;28;20206;-70
2021/10/03 02:58:56;;;;;;;4.97;1.93;;;;;;;;;;4954963;28;20178;-70
2021/10/03 03:01:22;;;;;;;3.43;2.40;;;;;;;;;;4951183;28;20269;-70
2021/10/03 03:03:47;;;;;;;3.90;2.03;;;;;;;;;;4958424;28;20277;-69
2021/10/03 03:06:13;;;;;;;3.10;2.30;;;;;;;;;;4955188;28;20182;-70
2021/10/03 03:08:38;;;;;;;3.00;2.00;;;;;;;;;;4958603;28;20206;-70
2021/10/03 03:11:04;;;;;;;4.37;1.90;;;;;;;;;;4953441;28;20175;-70
2021/10/03 03:13:29;;;;;;;5.23;1.70;;;;;;;;;;4958483;28;20178;-70
2021/10/03 03:15:55;;;;;;;2.60;2.20;;;;;;;;;;4958491;28;20240;-70
2021/10/03 03:18:21;;;;;;;3.63;2.20;;;;;;;;;;4957002;28;20190;-70
2021/10/03 03:20:46;;;;;;;2.47;2.27;;;;;;;;;;4959715;28;20584;-70
2021/10/03 03:23:12;;;;;;;2.67;1.80;;;;;;;;;;4959904;28;20660;-70
2021/10/03 03:25:37;;;;;;;2.13;1.90;;;;;;;;;;4960189;28;20218;-70
2021/10/03 03:28:03;;;;;;;4.10;2.30;;;;;;;;;;4960098;28;20194;-72
2021/10/03 03:30:28;;;;;;;2.90;2.20;;;;;;;;;;4963191;28;20226;-71
2021/10/03 03:32:53;;;;;;;6.20;1.40;;;;;;;;;;4961157;28;20444;-72
2021/10/03 03:35:18;;;;;;;2.17;1.63;;;;;;;;;;4959046;28;20206;-71
2021/10/03 03:37:44;;;;;;;2.50;2.20;;;;;;;;;;4954952;28;20274;-72
2021/10/03 03:40:10;;;;;;;1.40;1.30;;;;;;;;;;4962630;28;20194;-71
2021/10/03 03:42:35;;;;;;;2.60;1.50;;;;;;;;;;4960564;28;20187;-72
2021/10/03 03:45:01;;;;;;;2.33;1.70;;;;;;;;;;4956245;28;20470;-72
2021/10/03 03:47:26;;;;;;;1.90;1.67;;;;;;;;;;4956231;28;20183;-72
2021/10/03 03:49:51;;;;;;;1.60;1.50;;;;;;;;;;4957745;28;20292;-72
2021/10/03 03:52:18;;;;;;;1.60;1.50;;;;;;;;;;4960420;28;20190;-72
2021/10/03 03:54:43;;;;;;;1.70;1.60;;;;;;;;;;4961935;28;20212;-71
2021/10/03 03:57:08;;;;;;;2.70;2.00;;;;;;;;;;4960230;28;20437;-72
2021/10/03 03:59:33;;;;;;;1.60;1.50;;;;;;;;;;4958407;28;20315;-72
2021/10/03 04:01:58;;;;;;;2.07;1.60;;;;;;;;;;4956927;28;20195;-72
2021/10/03 04:04:24;;;;;;;1.50;1.40;;;;;;;;;;4960806;28;20574;-72
2021/10/03 04:06:49;;;;;;;1.80;1.70;;;;;;;;;;4959782;28;20258;-72
2021/10/03 04:09:14;;;;;;;2.90;1.50;;;;;;;;;;4959192;28;20219;-72
2021/10/03 04:11:39;;;;;;;1.93;1.70;;;;;;;;;;4957915;28;20248;-72
2021/10/03 04:14:05;;;;;;;2.50;1.50;;;;;;;;;;4963111;28;20230;-72
2021/10/03 04:16:30;;;;;;;2.67;1.83;;;;;;;;;;4958589;28;20201;-72
2021/10/03 04:18:55;;;;;;;1.87;1.77;;;;;;;;;;4954242;28;20194;-72
2021/10/03 04:21:21;;;;;;;1.80;1.70;;;;;;;;;;4962998;28;20187;-72
2021/10/03 04:23:46;;;;;;;1.63;1.53;;;;;;;;;;4958380;28;20195;-72
2021/10/03 04:26:11;;;;;;;1.47;1.30;;;;;;;;;;4961201;28;20197;-71
2021/10/03 04:28:36;;;;;;;1.70;1.60;;;;;;;;;;4957692;28;20263;-72
2021/10/03 04:31:02;;;;;;;1.70;1.60;;;;;;;;;;4957385;28;20556;-72
2021/10/03 04:33:27;;;;;;;1.80;1.57;;;;;;;;;;4952773;28;20197;-72
2021/10/03 04:35:53;;;;;;;2.93;1.70;;;;;;;;;;4957328;28;20202;-71
2021/10/03 04:38:18;;;;;;;1.53;1.43;;;;;;;;;;4958055;28;20640;-72
2021/10/03 04:40:43;;;;;;;1.70;1.60;;;;;;;;;;4957591;28;20182;-72
2021/10/03 04:43:08;;;;;;;1.80;1.70;;;;;;;;;;4960219;28;20270;-72
2021/10/03 04:45:34;;;;;;;1.70;1.60;;;;;;;;;;4953698;28;20218;-72
2021/10/03 04:48:00;;;;;;;3.23;1.93;;;;;;;;;;4959148;28;20293;-71
2021/10/03 04:50:25;;;;;;;2.47;2.13;;;;;;;;;;4951697;28;20260;-71
2021/10/03 04:52:50;;;;;;;2.30;2.10;;;;;;;;;;4959285;28;20512;-72
2021/10/03 04:55:18;;;;;;;2.53;1.43;;;;;;;;;;4959398;28;20210;-72
2021/10/03 04:57:44;;;;;;;2.80;1.20;;;;;;;;;;4960709;28;20186;-72
2021/10/03 05:00:10;;;;;;;1.17;1.07;;;;;;;;;;4958979;28;20837;-72
2021/10/03 05:02:36;;;;;;;1.53;0.73;;;;;;;;;;4959290;28;20214;-72
2021/10/03 05:05:01;;;;;;;1.83;0.80;;;;;;;;;;4959752;28;20512;-72
2021/10/03 05:07:26;;;;;;;2.17;0.70;;;;;;;;;;4959763;28;20604;-72
2021/10/03 05:09:52;;;;;;;1.90;0.60;;;;;;;;;;4957258;28;20892;-71
2021/10/03 05:12:17;;;;;;;3.50;0.80;;;;;;;;;;4957565;28;21156;-71
2021/10/03 05:14:42;;;;;;;2.70;0.70;;;;;;;;;;4957823;28;20207;-72
2021/10/03 05:17:08;;;;;;;0.70;0.63;;;;;;;;;;4953503;28;20602;-71
2021/10/03 05:19:33;;;;;;;2.83;0.70;;;;;;;;;;4958511;28;20184;-71
2021/10/03 05:21:58;;;;;;;0.50;0.50;;;;;;;;;;4954682;28;20197;-71
2021/10/03 05:24:24;;;;;;;1.33;0.60;;;;;;;;;;4962034;28;20206;-71
2021/10/03 05:26:49;;;;;;;1.80;0.93;;;;;;;;;;4963034;28;20285;-71
2021/10/03 05:29:14;;;;;;;1.30;0.70;;;;;;;;;;4960155;28;20208;-71
2021/10/03 05:31:39;;;;;;;3.77;1.10;;;;;;;;;;4962988;28;20293;-71
2021/10/03 05:34:05;;;;;;;1.07;0.60;;;;;;;;;;4959190;28;20195;-71
2021/10/03 05:36:30;;;;;;;1.47;0.80;;;;;;;;;;4959897;28;20201;-71
2021/10/03 05:38:56;;;;;;;0.63;0.63;;;;;;;;;;4963691;28;20193;-73
2021/10/03 05:41:22;;;;;;;1.20;0.90;;;;;;;;;;4957431;28;20230;-72
2021/10/03 05:43:47;;;;;;;2.03;0.90;;;;;;;;;;4960331;28;20471;-71
2021/10/03 05:46:12;;;;;;;3.23;0.93;;;;;;;;;;4956167;28;20264;-72
2021/10/03 05:48:38;;;;;;;1.17;0.70;;;;;;;;;;4963210;28;20214;-72
2021/10/03 05:51:03;;;;;;;2.70;0.70;;;;;;;;;;4957258;28;20207;-72
2021/10/03 05:53:28;;;;;;;1.50;0.70;;;;;;;;;;4960335;28;20624;-72
2021/10/03 05:55:54;;;;;;;1.00;0.70;;;;;;;;;;4960070;28;20438;-72
2021/10/03 05:58:19;;;;;;;1.30;0.90;;;;;;;;;;4957841;28;20189;-72
2021/10/03 06:00:44;;;;;;;0.67;0.67;;;;;;;;;;4961239;28;20191;-72
2021/10/03 06:03:10;;;;;;;3.83;0.90;;;;;;;;;;4961974;28;20551;-72
2021/10/03 06:05:35;;;;;;;1.23;0.77;;;;;;;;;;4958985;28;20210;-72
2021/10/03 06:08:00;;;;;;;0.90;0.50;;;;;;;;;;4955888;28;20249;-72
2021/10/03 06:10:25;;;;;;;1.60;0.70;;;;;;;;;;4958603;28;20197;-73
2021/10/03 06:12:51;;;;;;;2.20;0.80;;;;;;;;;;4961706;28;20261;-72
2021/10/03 06:15:17;;;;;;;0.63;0.63;;;;;;;;;;4957752;28;20218;-73
2021/10/03 06:17:43;;;;;;;0.73;0.73;;;;;;;;;;4958502;28;20429;-73
2021/10/03 06:20:09;;;;;;;1.20;0.50;;;;;;;;;;4954840;28;20639;-73
2021/10/03 06:22:35;;;;;;;0.60;0.60;;;;;;;;;;4957632;28;20470;-72
2021/10/03 06:25:00;;;;;;;0.57;0.50;;;;;;;;;;4958818;28;20233;-72
2021/10/03 06:27:25;;;;;;;0.70;0.60;;;;;;;;;;4957623;28;20443;-72
2021/10/03 06:29:52;;;;;;;0.60;0.60;;;;;;;;;;4954572;28;20198;-72
2021/10/03 06:32:18;;;;;;;0.50;0.50;;;;;;;;;;4950952;28;20229;-72
2021/10/03 06:34:43;;;;;;;2.40;0.53;;;;;;;;;;4953952;28;20850;-72
2021/10/03 06:37:08;;;;;;;0.70;0.50;;;;;;;;;;4952568;28;20179;-72
2021/10/03 06:39:33;;;;;;;1.00;0.60;;;;;;;;;;4957715;28;20186;-73
2021/10/03 06:41:59;;;;;;;3.40;0.70;;;;;;;;;;4958013;28;20181;-72
2021/10/03 06:44:24;;;;;;;0.67;0.60;;;;;;;;;;4969992;23;20308;-73
2021/10/03 06:46:49;;;;;;;0.50;0.50;;;;;;;;;;4980133;28;20222;-73
2021/10/03 06:49:17;;;;;;;0.80;0.60;;;;;;;;;;4988265;28;20204;-72
2021/10/03 06:51:43;;;;;;;1.00;0.50;;;;;;;;;;4980440;28;20170;-72
2021/10/03 06:54:09;;;;;;;1.00;0.50;;;;;;;;;;4986273;28;20441;-71
2021/10/03 06:56:34;;;;;;;0.93;0.50;;;;;;;;;;4987404;28;20200;-71
2021/10/03 06:58:59;;;;;;;2.37;0.53;;;;;;;;;;4984053;28;20420;-72
2021/10/03 07:01:24;;;;;;;3.47;0.70;;;;;;;;;;4980987;28;20285;-72
2021/10/03 07:03:50;;;;;;;1.27;0.57;;;;;;;;;;4979462;28;20284;-71
2021/10/03 07:06:15;;;;;;;0.63;0.60;;;;;;;;;;4977767;28;20316;-71
2021/10/03 07:08:41;;;;;;;0.50;0.50;;;;;;;;;;4982420;28;20209;-71
2021/10/03 07:11:06;;;;;;;1.03;0.53;;;;;;;;;;4981860;28;20336;-71
2021/10/03 07:13:31;;;;;;;0.50;0.50;;;;;;;;;;4983325;28;20263;-71
2021/10/03 07:15:56;;;;;;;0.50;0.50;;;;;;;;;;4986597;28;20205;-71
2021/10/03 07:18:22;;;;;;;2.40;0.60;;;;;;;;;;4987182;28;20671;-70
2021/10/03 07:20:47;;;;;;;1.17;0.60;;;;;;;;;;4972379;28;20498;-70
2021/10/03 07:23:12;;;;;;;2.07;1.03;;;;;;;;;;4975223;28;20185;-71
2021/10/03 07:25:38;;;;;;;0.97;0.53;;;;;;;;;;4978237;28;20206;-70
2021/10/03 07:28:03;;;;;;;0.60;0.60;;;;;;;;;;4974877;28;20361;-70
2021/10/03 07:30:28;;;;;;;1.47;0.73;;;;;;;;;;4984429;28;20265;-71
2021/10/03 07:32:54;;;;;;;0.97;0.60;;;;;;;;;;4980545;28;20564;-71
2021/10/03 07:35:19;;;;;;;1.30;0.53;;;;;;;;;;4981412;28;20202;-71
2021/10/03 07:37:45;;;;;;;0.80;0.70;;;;;;;;;;4986046;28;20181;-71
2021/10/03 07:40:10;;;;;;;0.60;0.60;;;;;;;;;;4981545;28;20196;-71
2021/10/03 07:42:36;;;;;;;1.03;0.60;;;;;;;;;;4987455;28;20181;-71
2021/10/03 07:45:01;;;;;;;0.60;0.60;;;;;;;;;;4975033;28;20291;-70
2021/10/03 07:47:26;;;;;;;0.50;0.50;;;;;;;;;;4976154;28;20232;-71
2021/10/03 07:49:52;;;;;;;2.00;0.50;;;;;;;;;;4983408;28;20229;-70
2021/10/03 07:52:17;;;;;;;0.73;0.60;;;;;;;;;;4982313;28;20186;-71
2021/10/03 07:54:42;;;;;;;3.10;0.90;;;;;;;;;;4980865;28;20197;-70
2021/10/03 07:57:07;;;;;;;1.17;0.50;;;;;;;;;;4983537;28;20185;-70
2021/10/03 07:59:33;;;;;;;0.77;0.60;;;;;;;;;;4983675;28;20197;-71
2021/10/03 08:01:58;;;;;;;3.60;0.60;;;;;;;;;;4980051;28;20198;-71
2021/10/03 08:04:23;;;;;;;0.97;0.60;;;;;;;;;;4980834;28;20236;-71
2021/10/03 08:06:48;;;;;;;1.20;0.60;;;;;;;;;;4980665;28;20639;-72
2021/10/03 08:09:14;;;;;;;1.73;0.53;;;;;;;;;;4981455;28;20261;-71
2021/10/03 08:11:39;;;;;;;0.83;0.50;;;;;;;;;;4975235;28;20213;-71
2021/10/03 08:14:04;;;;;;;0.70;0.50;;;;;;;;;;4971955;28;20222;-71
2021/10/03 08:16:29;;;;;;;0.50;0.50;;;;;;;;;;4979970;28;20630;-71
2021/10/03 08:18:58;;;;;;;2.30;0.60;;;;;;;;;;4976443;28;20581;-71
2021/10/03 08:21:23;;;;;;;1.13;0.70;;;;;;;;;;4976908;28;20202;-71
2021/10/03 08:23:48;;;;;;;0.87;0.50;;;;;;;;;;4982239;28;20828;-71
2021/10/03 08:26:13;;;;;;;1.23;0.60;;;;;;;;;;4981589;28;20189;-71
2021/10/03 08:28:39;;;;;;;0.80;0.60;;;;;;;;;;4980084;28;20263;-71
2021/10/03 08:31:04;;;;;;;0.50;0.50;;;;;;;;;;4977390;28;20179;-70
2021/10/03 08:33:29;;;;;;;1.00;0.50;;;;;;;;;;4978720;28;20529;-71
2021/10/03 08:35:55;;;;;;;2.57;0.50;;;;;;;;;;4973163;28;20252;-73
2021/10/03 08:38:20;;;;;;;0.50;0.50;;;;;;;;;;4976192;28;20210;-72
2021/10/03 08:40:45;;;;;;;0.50;0.50;;;;;;;;;;4974093;28;20190;-71
2021/10/03 08:43:10;;;;;;;1.17;0.53;;;;;;;;;;4978235;28;20177;-72
2021/10/03 08:45:42;;;;;;;0.60;0.50;;;;;;;;;;4977163;28;20226;-71
2021/10/03 08:48:08;;;;;;;0.63;0.63;;;;;;;;;;4967633;28;20737;-71
2021/10/03 08:50:34;;;;;;;0.50;0.50;;;;;;;;;;4976652;28;20441;-70
2021/10/03 08:52:59;;;;;;;2.00;0.50;;;;;;;;;;4982380;28;21067;-71
2021/10/03 08:55:24;;;;;;;0.50;0.50;;;;;;;;;;4976470;28;20198;-71
2021/10/03 08:57:49;;;;;;;1.17;0.53;;;;;;;;;;4977241;28;20202;-71
2021/10/03 09:00:26;;;;;;;0.87;0.70;;;;;;;;;;4971287;28;20221;-72
2021/10/03 09:03:00;;;;;;;2.63;0.53;;;;;;;;;;4984548;28;20268;-73
2021/10/03 09:05:27;;;;;;;4.33;1.17;;;;;;;;;;4975394;28;20452;-72
2021/10/03 09:07:59;;;;;;;1.00;0.67;;;;;;;;;;4975306;28;20459;-71
2021/10/03 09:10:27;;;;;;;2.00;0.60;;;;;;;;;;4974529;28;20429;-73
2021/10/03 09:12:57;;;;;;;0.87;0.60;;;;;;;;;;4977865;28;20554;-72
2021/10/03 09:15:22;;;;;;;0.87;0.60;;;;;;;;;;4971973;28;20892;-72
2021/10/03 09:17:51;;;;;;;0.50;0.50;;;;;;;;;;4977975;28;20437;-74
2021/10/03 09:20:18;;;;;;;0.60;0.50;;;;;;;;;;4976444;28;20585;-72
2021/10/03 09:23:02;;;;;;;1.20;0.50;;;;;;;;;;4977554;28;20916;-71
2021/10/03 09:25:33;;;;;;;1.00;0.60;;;;;;;;;;4979584;28;20466;-72
2021/10/03 09:27:59;;;;;;;0.70;0.70;;;;;;;;;;4975767;28;20791;-71
2021/10/03 09:30:24;;;;;;;1.43;0.60;;;;;;;;;;4974500;28;20445;-72
2021/10/03 09:32:55;;;;;;;0.93;0.70;;;;;;;;;;4976051;28;20185;-73
2021/10/03 09:35:21;;;;;;;0.70;0.70;;;;;;;;;;4978194;28;20204;-73
2021/10/03 09:37:46;;;;;;;1.03;0.67;;;;;;;;;;4975405;28;20438;-72
2021/10/03 09:40:13;;;;;;;0.60;0.60;;;;;;;;;;4972809;28;20244;-71
2021/10/03 09:42:39;;;;;;;0.80;0.60;;;;;;;;;;4972953;28;20182;-72
2021/10/03 09:45:13;;;;;;;0.60;0.50;;;;;;;;;;4976899;28;20488;-72
2021/10/03 09:47:39;;;;;;;0.53;0.50;;;;;;;;;;4977448;28;20429;-71
2021/10/03 09:50:05;;;;;;;0.87;0.67;;;;;;;;;;4972729;28;20465;-70
2021/10/03 09:52:31;;;;;;;0.70;0.60;;;;;;;;;;4973083;28;20809;-72
2021/10/03 09:54:57;;;;;;;0.83;0.60;;;;;;;;;;4970581;28;20465;-71
2021/10/03 09:57:22;;;;;;;0.73;0.60;;;;;;;;;;4975613;28;20989;-71
2021/10/03 09:59:48;;;;;;;2.10;0.60;;;;;;;;;;4973115;28;20190;-71
2021/10/03 10:02:16;;;;;;;0.70;0.70;;;;;;;;;;4975996;28;20273;-72
2021/10/03 10:04:42;;;;;;;0.70;0.70;;;;;;;;;;4972986;28;20213;-70
2021/10/03 10:07:08;;;;;;;2.17;0.93;;;;;;;;;;4973805;28;20502;-70
2021/10/03 10:09:33;;;;;;;1.37;0.60;;;;;;;;;;4963270;28;20464;-70
2021/10/03 10:12:06;;;;;;;0.80;0.60;;;;;;;;;;4967720;28;20272;-70
2021/10/03 10:14:38;;;;;;;2.73;0.80;;;;;;;;;;4972529;28;21322;-71
2021/10/03 10:17:22;;;;;;;1.17;0.60;;;;;;;;;;4972724;28;20437;-71
2021/10/03 10:19:47;;;;;;;1.20;0.60;;;;;;;;;;4974438;28;20428;-71
2021/10/03 10:22:15;;;;;;;0.93;0.60;;;;;;;;;;4974442;28;20601;-71
2021/10/03 10:24:46;;;;;;;1.43;0.50;;;;;;;;;;4969027;28;20200;-71
2021/10/03 10:27:21;;;;;;;0.63;0.60;;;;;;;;;;4969616;28;20994;-73
2021/10/03 10:29:53;;;;;;;2.03;0.70;;;;;;;;;;4980940;28;20465;-74
2021/10/03 10:32:22;;;;;;;2.33;0.60;;;;;;;;;;4978867;28;20440;-72
2021/10/03 10:35:06;;;;;;;0.63;0.60;;;;;;;;;;4982503;28;20453;-74
2021/10/03 10:37:50;;;;;;;0.80;0.70;;;;;;;;;;4975445;28;20520;-71
2021/10/03 10:40:24;;;;;;;1.60;0.80;;;;;;;;;;4973833;28;20433;-73
2021/10/03 10:42:53;;;;;;;0.80;0.70;;;;;;;;;;4972595;28;20961;-71
2021/10/03 10:45:27;;;;;;;0.80;0.70;;;;;;;;;;4977922;28;20468;-71
2021/10/03 10:48:05;;;;;;;1.67;0.80;;;;;;;;;;4972087;28;20436;-71
2021/10/03 10:50:30;;;;;;;1.20;0.70;;;;;;;;;;4972654;28;20560;-72
2021/10/03 10:53:14;;;;;;;0.83;0.60;;;;;;;;;;4976661;28;20540;-71
2021/10/03 10:55:39;;;;;;;1.17;0.87;;;;;;;;;;4975671;28;20198;-72
2021/10/03 10:58:06;;;;;;;1.00;0.70;;;;;;;;;;4977159;28;20854;-71
2021/10/03 11:00:31;;;;;;;2.43;0.80;;;;;;;;;;4979985;28;20257;-71
2021/10/03 11:03:01;;;;;;;0.70;0.70;;;;;;;;;;4978083;28;20460;-71
2021/10/03 11:05:39;;;;;;;2.50;1.00;;;;;;;;;;4977839;28;20272;-70
2021/10/03 11:08:09;;;;;;;1.73;0.80;;;;;;;;;;4970704;28;20436;-72
2021/10/03 11:10:54;;;;;;;1.03;0.80;;;;;;;;;;4974252;28;20428;-73
2021/10/03 11:13:52;;;;;;;0.90;0.70;;;;;;;;;;4969880;28;20444;-72
2021/10/03 11:16:29;;;;;;;0.70;0.70;;;;;;;;;;4976347;28;21095;-72
2021/10/03 11:18:55;;;;;;;0.70;0.60;;;;;;;;;;4975475;28;20435;-72
2021/10/03 11:21:31;;;;;;;0.80;0.50;;;;;;;;;;4978892;28;20425;-72
2021/10/03 11:23:57;;;;;;;0.60;0.50;;;;;;;;;;4977580;28;20434;-72
2021/10/03 11:26:29;;;;;;;0.80;0.70;;;;;;;;;;4975405;28;20441;-72
2021/10/03 11:28:55;;;;;;;0.63;0.60;;;;;;;;;;4981204;28;20536;-70
2021/10/03 11:31:33;;;;;;;1.17;0.70;;;;;;;;;;4977480;28;20446;-70
2021/10/03 11:33:59;;;;;;;0.60;0.60;;;;;;;;;;4972755;28;20437;-70
2021/10/03 11:36:24;;;;;;;1.47;0.80;;;;;;;;;;4974937;28;20434;-70
2021/10/03 11:38:49;;;;;;;0.90;0.60;;;;;;;;;;4977386;28;20648;-70
2021/10/03 11:41:14;;;;;;;0.90;0.80;;;;;;;;;;4980568;28;20189;-70
2021/10/03 11:43:39;;;;;;;0.93;0.80;;;;;;;;;;4976630;28;20170;-70
2021/10/03 11:46:05;;;;;;;2.23;0.90;;;;;;;;;;4977652;28;21337;-70
2021/10/03 11:48:31;;;;;;;0.50;0.50;;;;;;;;;;4979277;28;21226;-70
2021/10/03 11:50:56;;;;;;;1.00;0.57;;;;;;;;;;4987815;28;20516;-70
2021/10/03 11:53:21;;;;;;;0.70;0.60;;;;;;;;;;4974693;28;20257;-70
2021/10/03 11:55:48;;;;;;;1.50;0.67;;;;;;;;;;4976483;28;20253;-72
2021/10/03 11:58:16;;;;;;;0.97;0.70;;;;;;;;;;4982473;28;20192;-70
2021/10/03 12:00:48;;;;;;;0.53;0.53;;;;;;;;;;4975010;28;20442;-70
2021/10/03 12:03:15;;;;;;;0.70;0.60;;;;;;;;;;4976472;28;20436;-70
2021/10/03 12:05:41;;;;;;;1.17;0.60;;;;;;;;;;4971220;28;20587;-70
2021/10/03 12:08:08;;;;;;;2.77;0.70;;;;;;;;;;4981350;28;20527;-70
2021/10/03 12:10:36;;;;;;;0.90;0.80;;;;;;;;;;4977166;28;20658;-70
2021/10/03 12:13:09;;;;;;;1.57;0.83;;;;;;;;;;4974198;28;20771;-71
2021/10/03 12:15:34;;;;;;;0.90;0.90;;;;;;;;;;4979956;28;20536;-72
2021/10/03 12:17:59;;;;;;;0.70;0.70;;;;;;;;;;4979854;28;20521;-73
2021/10/03 12:20:25;;;;;;;1.03;0.80;;;;;;;;;;4979231;28;20240;-71
2021/10/03 12:22:56;;;;;;;1.47;0.70;;;;;;;;;;4981283;28;20189;-71
2021/10/03 12:25:42;;;;;;;0.80;0.80;;;;;;;;;;4986632;28;20709;-70
2021/10/03 12:28:07;;;;;;;0.60;0.60;;;;;;;;;;4982850;28;20436;-70
2021/10/03 12:30:55;;;;;;;1.63;0.80;;;;;;;;;;4981323;28;20449;-71
2021/10/03 12:33:20;;;;;;;0.70;0.70;;;;;;;;;;4970881;28;20174;-70
2021/10/03 12:35:59;;;;;;;1.27;0.83;;;;;;;;;;4974934;28;20456;-70
2021/10/03 12:38:25;;;;;;;0.50;0.50;;;;;;;;;;4986450;28;20182;-70
2021/10/03 12:40:50;;;;;;;0.50;0.50;;;;;;;;;;4979783;28;20467;-70
2021/10/03 12:43:15;;;;;;;0.50;0.50;;;;;;;;;;4975367;28;20278;-70
2021/10/03 12:45:40;;;;;;;0.47;0.47;;;;;;;;;;4978218;28;20244;-70
2021/10/03 12:48:06;;;;;;;0.60;0.60;;;;;;;;;;4979554;28;20221;-70
2021/10/03 12:50:31;;;;;;;0.60;0.60;;;;;;;;;;4977910;28;20201;-70
2021/10/03 12:52:56;;;;;;;0.63;0.60;;;;;;;;;;4977934;28;20174;-70
2021/10/03 12:55:21;;;;;;;0.60;0.60;;;;;;;;;;4971467;28;20206;-70
2021/10/03 12:57:49;;;;;;;0.60;0.57;;;;;;;;;;4976785;28;20218;-69
2021/10/03 13:00:14;;;;;;;0.60;0.60;;;;;;;;;;4979068;28;20205;-70
2021/10/03 13:02:39;;;;;;;0.60;0.60;;;;;;;;;;4978103;28;20437;-70
2021/10/03 13:05:05;;;;;;;0.60;0.60;;;;;;;;;;4979106;28;20206;-70
2021/10/03 13:07:31;;;;;;;0.70;0.70;;;;;;;;;;4980171;28;20194;-70
2021/10/03 13:09:56;;;;;;;0.67;0.67;;;;;;;;;;4976821;28;20835;-70
2021/10/03 13:12:21;;;;;;;0.50;0.50;;;;;;;;;;4980919;28;20185;-70
2021/10/03 13:14:47;;;;;;;0.50;0.50;;;;;;;;;;4973095;28;20418;-69
2021/10/03 13:17:12;;;;;;;0.50;0.50;;;;;;;;;;4976195;28;20201;-70
2021/10/03 13:19:37;;;;;;;0.60;0.53;;;;;;;;;;4971928;28;20179;-70
2021/10/03 13:22:03;;;;;;;0.70;0.70;;;;;;;;;;4974860;28;20225;-71
2021/10/03 13:24:28;;;;;;;0.60;0.60;;;;;;;;;;4971026;28;20289;-70
2021/10/03 13:26:53;;;;;;;0.73;0.70;;;;;;;;;;4979638;28;20178;-70
2021/10/03 13:29:18;;;;;;;0.70;0.70;;;;;;;;;;4984198;28;20694;-70
2021/10/03 13:31:44;;;;;;;1.03;0.97;;;;;;;;;;4980227;28;20666;-70
2021/10/03 13:34:09;;;;;;;0.80;0.80;;;;;;;;;;4978013;28;20194;-70
2021/10/03 13:36:37;;;;;;;1.70;0.90;;;;;;;;;;4981532;28;20197;-70
2021/10/03 13:39:03;;;;;;;0.80;0.80;;;;;;;;;;4982062;28;20185;-70
2021/10/03 13:41:29;;;;;;;0.80;0.80;;;;;;;;;;4980783;28;20428;-70
2021/10/03 13:43:54;;;;;;;0.70;0.70;;;;;;;;;;4981608;28;20425;-70
2021/10/03 13:46:19;;;;;;;1.63;1.03;;;;;;;;;;4982745;28;20186;-70
2021/10/03 13:48:44;;;;;;;0.70;0.60;;;;;;;;;;4980675;28;20201;-70
2021/10/03 13:51:10;;;;;;;0.90;0.70;;;;;;;;;;4979740;28;20185;-70
2021/10/03 13:53:35;;;;;;;0.70;0.70;;;;;;;;;;4980524;28;20232;-70
2021/10/03 13:56:01;;;;;;;1.07;0.60;;;;;;;;;;4981554;28;20198;-70
2021/10/03 13:58:26;;;;;;;1.00;0.60;;;;;;;;;;4981288;28;20197;-70
2021/10/03 14:00:52;;;;;;;0.80;0.80;;;;;;;;;;4980798;28;20233;-70
2021/10/03 14:03:17;;;;;;;0.80;0.73;;;;;;;;;;4982519;28;20248;-70
2021/10/03 14:05:42;;;;;;;0.60;0.60;;;;;;;;;;4982975;28;20298;-70
2021/10/03 14:08:07;;;;;;;1.97;0.77;;;;;;;;;;4982822;28;20657;-70
2021/10/03 14:10:33;;;;;;;0.73;0.70;;;;;;;;;;4983569;28;20264;-70
2021/10/03 14:12:58;;;;;;;2.70;0.90;;;;;;;;;;4982581;28;20650;-70
2021/10/03 14:15:23;;;;;;;1.20;0.83;;;;;;;;;;4978630;28;20265;-70
2021/10/03 14:17:48;;;;;;;1.00;0.90;;;;;;;;;;4978862;28;20186;-70
2021/10/03 14:20:14;;;;;;;0.90;0.90;;;;;;;;;;4981257;28;20186;-70
2021/10/03 14:22:40;;;;;;;0.80;0.73;;;;;;;;;;4982209;28;20178;-70
2021/10/03 14:25:05;;;;;;;0.80;0.80;;;;;;;;;;4982173;28;20450;-70
2021/10/03 14:27:31;;;;;;;1.27;0.90;;;;;;;;;;4978738;28;20552;-70
2021/10/03 14:29:56;;;;;;;1.43;1.33;;;;;;;;;;4981124;28;20260;-70
2021/10/03 14:32:22;;;;;;;1.43;1.33;;;;;;;;;;4983298;28;20182;-71
2021/10/03 14:34:47;;;;;;;2.43;2.10;;;;;;;;;;4978769;28;20780;-71
2021/10/03 14:37:13;;;;;;;9.03;5.27;;;;;;;;;;4973428;28;20186;-71
2021/10/03 14:39:38;;;;;;;2.57;2.20;;;;;;;;;;4973649;28;20185;-71